sensor_id;sensor_type;location;lat;lon;timestamp;pressure;altitude;pressure_sealevel;temperature;humidity
54856;BME280;40748;53.168;5.800;2022-08-24T00:00:51;101711.05;;;22.11;57.55
54856;BME280;40748;53.168;5.800;2022-08-24T00:03:21;101710.36;;;22.08;58.05
54856;BME280;40748;53.168;5.800;2022-08-24T00:05:51;101712.66;;;22.04;58.22
54856;BME280;40748;53.168;5.800;2022-08-24T00:08:20;101711.72;;;21.99;58.32
54856;BME280;40748;53.168;5.800;2022-08-24T00:10:50;101710.79999999999;;;21.96;58.02
54856;BME280;40748;53.168;5.800;2022-08-24T00:13:20;101705.08;;;21.93;58.45
54856;BME280;40748;53.168;5.800;2022-08-24T00:15:50;101706.04;;;21.90;58.65
54856;BME280;40748;53.168;5.800;2022-08-24T00:18:21;101712.31;;;21.85;58.81
54856;BME280;40748;53.168;5.800;2022-08-24T00:20:50;101713.83;;;21.82;58.41
54856;BME280;40748;53.168;5.800;2022-08-24T00:23:20;101713.76000000001;;;21.80;58.56
54856;BME280;40748;53.168;5.800;2022-08-24T00:25:51;101719.11;;;21.76;58.41
54856;BME280;40748;53.168;5.800;2022-08-24T00:28:21;101720.78;;;21.71;58.46
54856;BME280;40748;53.168;5.800;2022-08-24T00:30:51;101719.79;;;21.68;58.10
54856;BME280;40748;53.168;5.800;2022-08-24T00:33:21;101723.83;;;21.66;58.67
54856;BME280;40748;53.168;5.800;2022-08-24T00:35:50;101724.8;;;21.63;58.50
54856;BME280;40748;53.168;5.800;2022-08-24T00:38:20;101720.9;;;21.60;58.11
54856;BME280;40748;53.168;5.800;2022-08-24T00:40:50;101716.35;;;21.59;57.86
54856;BME280;40748;53.168;5.800;2022-08-24T00:43:21;101716.42;;;21.57;58.20
54856;BME280;40748;53.168;5.800;2022-08-24T00:45:54;101713.19;;;21.55;59.00
54856;BME280;40748;53.168;5.800;2022-08-24T00:48:23;101711.47;;;21.51;58.78
54856;BME280;40748;53.168;5.800;2022-08-24T00:50:53;101709.38;;;21.48;58.26
54856;BME280;40748;53.168;5.800;2022-08-24T00:53:22;101706.92;;;21.46;58.28
54856;BME280;40748;53.168;5.800;2022-08-24T00:55:52;101710.99;;;21.44;58.79
54856;BME280;40748;53.168;5.800;2022-08-24T00:58:22;101710.99;;;21.39;58.79
54856;BME280;40748;53.168;5.800;2022-08-24T01:00:52;101716.2;;;21.37;58.23
54856;BME280;40748;53.168;5.800;2022-08-24T01:03:20;101720.01000000001;;;21.35;59.30
54856;BME280;40748;53.168;5.800;2022-08-24T01:05:50;101720.01000000001;;;21.33;59.30
54856;BME280;40748;53.168;5.800;2022-08-24T01:08:20;101718.40999999999;;;21.29;59.17
54856;BME280;40748;53.168;5.800;2022-08-24T01:10:51;101718.40999999999;;;21.26;59.17
54856;BME280;40748;53.168;5.800;2022-08-24T01:13:21;101714.0;;;21.24;59.47
54856;BME280;40748;53.168;5.800;2022-08-24T01:15:51;101714.0;;;21.22;59.56
54856;BME280;40748;53.168;5.800;2022-08-24T01:18:22;101714.48000000001;;;21.17;59.66
54856;BME280;40748;53.168;5.800;2022-08-24T01:20:52;101703.73;;;21.15;59.61
54856;BME280;40748;53.168;5.800;2022-08-24T01:25:50;101697.29999999999;;;21.13;60.38
54856;BME280;40748;53.168;5.800;2022-08-24T01:28:20;101697.29999999999;;;21.06;59.91
54856;BME280;40748;53.168;5.800;2022-08-24T01:30:51;101693.72;;;21.04;59.07
54856;BME280;40748;53.168;5.800;2022-08-24T01:33:21;101695.28;;;21.02;59.48
54856;BME280;40748;53.168;5.800;2022-08-24T01:35:52;101690.95;;;21.00;59.60
54856;BME280;40748;53.168;5.800;2022-08-24T01:38:20;101695.43;;;20.95;59.94
54856;BME280;40748;53.168;5.800;2022-08-24T01:40:54;101699.92;;;20.94;60.36
54856;BME280;40748;53.168;5.800;2022-08-24T01:43:20;101701.97;;;20.93;60.36
54856;BME280;40748;53.168;5.800;2022-08-24T01:45:50;101701.92;;;20.91;59.88
54856;BME280;40748;53.168;5.800;2022-08-24T01:48:20;101701.92;;;20.88;59.96
54856;BME280;40748;53.168;5.800;2022-08-24T01:58:21;101712.77;;;20.85;60.90
54856;BME280;40748;53.168;5.800;2022-08-24T02:00:50;101711.15999999999;;;20.84;60.48
54856;BME280;40748;53.168;5.800;2022-08-24T02:03:20;101711.22;;;20.83;60.52
54856;BME280;40748;53.168;5.800;2022-08-24T02:05:50;101710.65999999999;;;20.81;60.23
54856;BME280;40748;53.168;5.800;2022-08-24T02:08:20;101708.09000000001;;;20.78;60.04
54856;BME280;40748;53.168;5.800;2022-08-24T02:10:50;101714.75;;;20.77;60.07
54856;BME280;40748;53.168;5.800;2022-08-24T02:13:20;101714.79000000001;;;20.76;60.94
54856;BME280;40748;53.168;5.800;2022-08-24T02:15:50;101713.58;;;20.75;61.22
54856;BME280;40748;53.168;5.800;2022-08-24T02:18:20;101715.01;;;20.70;60.90
54856;BME280;40748;53.168;5.800;2022-08-24T02:20:50;101721.37;;;20.68;60.44
54856;BME280;40748;53.168;5.800;2022-08-24T02:23:21;101719.8;;;20.66;61.35
54856;BME280;40748;53.168;5.800;2022-08-24T02:25:50;101719.8;;;20.65;61.35
54856;BME280;40748;53.168;5.800;2022-08-24T02:28:20;101719.42;;;20.61;61.56
54856;BME280;40748;53.168;5.800;2022-08-24T02:30:51;101724.83;;;20.60;61.58
54856;BME280;40748;53.168;5.800;2022-08-24T02:33:20;101722.83;;;20.59;61.94
54856;BME280;40748;53.168;5.800;2022-08-24T02:35:51;101718.89;;;20.56;61.98
54856;BME280;40748;53.168;5.800;2022-08-24T02:38:20;101718.89;;;20.51;61.51
54856;BME280;40748;53.168;5.800;2022-08-24T02:40:50;101722.03;;;20.50;61.39
54856;BME280;40748;53.168;5.800;2022-08-24T02:45:50;101729.33;;;20.48;62.21
54856;BME280;40748;53.168;5.800;2022-08-24T02:48:21;101729.33;;;20.45;62.21
54856;BME280;40748;53.168;5.800;2022-08-24T02:53:21;101725.34000000001;;;20.46;61.51
54856;BME280;40748;53.168;5.800;2022-08-24T02:55:50;101726.12000000001;;;20.48;61.71
54856;BME280;40748;53.168;5.800;2022-08-24T02:58:20;101721.08;;;20.49;62.16
54856;BME280;40748;53.168;5.800;2022-08-24T03:00:51;101721.08;;;20.50;61.89
54856;BME280;40748;53.168;5.800;2022-08-24T03:03:20;101727.91;;;20.53;62.57
54856;BME280;40748;53.168;5.800;2022-08-24T03:08:20;101726.12000000001;;;20.51;62.68
54856;BME280;40748;53.168;5.800;2022-08-24T03:13:21;101730.18;;;20.52;62.56
54856;BME280;40748;53.168;5.800;2022-08-24T03:15:50;101727.47;;;20.53;62.62
54856;BME280;40748;53.168;5.800;2022-08-24T03:18:21;101729.72;;;20.50;62.53
54856;BME280;40748;53.168;5.800;2022-08-24T03:25:51;101746.57999999999;;;20.52;63.25
54856;BME280;40748;53.168;5.800;2022-08-24T03:28:22;101744.51000000001;;;20.50;63.25
54856;BME280;40748;53.168;5.800;2022-08-24T03:30:51;101744.51000000001;;;20.52;62.99
54856;BME280;40748;53.168;5.800;2022-08-24T03:33:20;101746.42;;;20.54;63.33
54856;BME280;40748;53.168;5.800;2022-08-24T03:35:50;101745.2;;;20.56;63.46
54856;BME280;40748;53.168;5.800;2022-08-24T03:38:21;101738.72;;;20.55;63.47
54856;BME280;40748;53.168;5.800;2022-08-24T03:40:50;101744.54;;;20.56;63.16
54856;BME280;40748;53.168;5.800;2022-08-24T03:45:51;101745.75;;;20.54;63.21
54856;BME280;40748;53.168;5.800;2022-08-24T03:48:20;101745.75;;;20.50;63.21
54856;BME280;40748;53.168;5.800;2022-08-24T03:50:51;101749.44;;;20.48;62.91
54856;BME280;40748;53.168;5.800;2022-08-24T03:53:21;101739.03;;;20.46;63.17
54856;BME280;40748;53.168;5.800;2022-08-24T03:55:50;101739.03;;;20.42;63.19
54856;BME280;40748;53.168;5.800;2022-08-24T03:58:20;101743.17;;;20.37;63.23
54856;BME280;40748;53.168;5.800;2022-08-24T04:00:50;101743.59;;;20.35;62.96
54856;BME280;40748;53.168;5.800;2022-08-24T04:03:21;101746.51;;;20.33;63.33
54856;BME280;40748;53.168;5.800;2022-08-24T04:05:50;101749.37999999999;;;20.30;63.49
54856;BME280;40748;53.168;5.800;2022-08-24T04:08:21;101750.12000000001;;;20.26;63.33
54856;BME280;40748;53.168;5.800;2022-08-24T04:10:50;101750.12000000001;;;20.24;63.33
54856;BME280;40748;53.168;5.800;2022-08-24T04:13:20;101751.73;;;20.22;63.50
54856;BME280;40748;53.168;5.800;2022-08-24T04:15:51;101752.37;;;20.18;63.55
54856;BME280;40748;53.168;5.800;2022-08-24T04:18:20;101754.69;;;20.14;63.30
54856;BME280;40748;53.168;5.800;2022-08-24T04:20:50;101752.15;;;20.12;63.02
54856;BME280;40748;53.168;5.800;2022-08-24T04:23:20;101756.53;;;20.11;63.35
54856;BME280;40748;53.168;5.800;2022-08-24T04:25:51;101756.58;;;20.09;63.56
54856;BME280;40748;53.168;5.800;2022-08-24T04:28:21;101758.22;;;20.05;63.15
54856;BME280;40748;53.168;5.800;2022-08-24T04:30:50;101760.29999999999;;;20.04;62.85
54856;BME280;40748;53.168;5.800;2022-08-24T04:33:21;101762.84000000001;;;20.02;63.26
54856;BME280;40748;53.168;5.800;2022-08-24T04:38:21;101754.45999999999;;;20.01;64.01
54856;BME280;40748;53.168;5.800;2022-08-24T04:40:51;101754.45999999999;;;20.00;63.58
54856;BME280;40748;53.168;5.800;2022-08-24T04:48:20;101750.35;;;19.97;64.23
54856;BME280;40748;53.168;5.800;2022-08-24T04:50:51;101752.01;;;19.96;64.08
54856;BME280;40748;53.168;5.800;2022-08-24T04:58:21;101757.75;;;19.94;64.88
54856;BME280;40748;53.168;5.800;2022-08-24T05:03:21;101759.28;;;19.95;64.71
54856;BME280;40748;53.168;5.800;2022-08-24T05:05:51;101763.84000000001;;;19.96;64.90
54856;BME280;40748;53.168;5.800;2022-08-24T05:08:20;101767.55;;;19.95;64.96
54856;BME280;40748;53.168;5.800;2022-08-24T05:10:51;101777.03;;;19.97;64.93
54856;BME280;40748;53.168;5.800;2022-08-24T05:13:21;101777.03;;;19.99;64.93
54856;BME280;40748;53.168;5.800;2022-08-24T05:15:51;101771.84;;;20.01;64.77
54856;BME280;40748;53.168;5.800;2022-08-24T05:18:21;101771.84;;;20.02;64.77
54856;BME280;40748;53.168;5.800;2022-08-24T05:20:50;101775.05;;;20.05;64.30
54856;BME280;40748;53.168;5.800;2022-08-24T05:23:21;101780.24;;;20.09;64.30
54856;BME280;40748;53.168;5.800;2022-08-24T05:25:51;101778.76;;;20.12;64.85
54856;BME280;40748;53.168;5.800;2022-08-24T05:28:21;101781.28;;;20.14;64.33
54856;BME280;40748;53.168;5.800;2022-08-24T05:30:51;101782.72;;;20.20;64.17
54856;BME280;40748;53.168;5.800;2022-08-24T05:33:21;101784.74;;;20.25;64.67
54856;BME280;40748;53.168;5.800;2022-08-24T05:35:51;101784.74;;;20.30;64.67
54856;BME280;40748;53.168;5.800;2022-08-24T05:38:21;101789.58;;;20.33;64.81
54856;BME280;40748;53.168;5.800;2022-08-24T05:40:51;101787.83;;;20.39;64.38
54856;BME280;40748;53.168;5.800;2022-08-24T05:43:21;101790.64;;;20.46;65.05
54856;BME280;40748;53.168;5.800;2022-08-24T05:45:51;101793.81;;;20.52;64.77
54856;BME280;40748;53.168;5.800;2022-08-24T05:48:21;101796.34;;;20.56;64.39
54856;BME280;40748;53.168;5.800;2022-08-24T05:50:51;101796.34;;;20.63;64.39
54856;BME280;40748;53.168;5.800;2022-08-24T05:53:21;101798.71;;;20.69;64.94
54856;BME280;40748;53.168;5.800;2022-08-24T05:55:51;101796.45000000001;;;20.73;64.78
54856;BME280;40748;53.168;5.800;2022-08-24T05:58:21;101794.92;;;20.75;64.33
54856;BME280;40748;53.168;5.800;2022-08-24T06:00:51;101800.42;;;20.84;64.29
54856;BME280;40748;53.168;5.800;2022-08-24T06:03:21;101798.91;;;20.91;64.84
54856;BME280;40748;53.168;5.800;2022-08-24T06:05:51;101794.06;;;20.98;64.68
54856;BME280;40748;53.168;5.800;2022-08-24T06:08:21;101794.19;;;21.03;65.02
54856;BME280;40748;53.168;5.800;2022-08-24T06:10:51;101796.64;;;21.11;64.80
54856;BME280;40748;53.168;5.800;2022-08-24T06:13:21;101796.89;;;21.19;65.43
54856;BME280;40748;53.168;5.800;2022-08-24T06:16:00;101799.13;;;21.25;65.31
54856;BME280;40748;53.168;5.800;2022-08-24T06:18:21;101797.31;;;21.31;65.37
54856;BME280;40748;53.168;5.800;2022-08-24T06:20:51;101796.96;;;21.38;65.18
54856;BME280;40748;53.168;5.800;2022-08-24T06:23:21;101801.19;;;21.46;65.07
54856;BME280;40748;53.168;5.800;2022-08-24T06:25:51;101804.42;;;21.54;65.08
54856;BME280;40748;53.168;5.800;2022-08-24T06:28:21;101804.42;;;21.59;65.08
54856;BME280;40748;53.168;5.800;2022-08-24T06:30:59;101809.42;;;21.69;64.94
54856;BME280;40748;53.168;5.800;2022-08-24T06:33:21;101809.42;;;21.80;64.94
54856;BME280;40748;53.168;5.800;2022-08-24T06:35:51;101811.22;;;21.88;65.18
54856;BME280;40748;53.168;5.800;2022-08-24T06:38:21;101812.75;;;21.96;65.16
54856;BME280;40748;53.168;5.800;2022-08-24T06:40:51;101812.75;;;22.06;64.90
54856;BME280;40748;53.168;5.800;2022-08-24T06:43:21;101817.93000000001;;;22.18;65.17
54856;BME280;40748;53.168;5.800;2022-08-24T06:45:51;101818.06;;;22.28;65.16
54856;BME280;40748;53.168;5.800;2022-08-24T06:48:21;101818.06;;;22.37;65.16
54856;BME280;40748;53.168;5.800;2022-08-24T06:50:51;101821.61;;;22.49;64.73
54856;BME280;40748;53.168;5.800;2022-08-24T06:53:21;101816.90999999999;;;22.60;65.17
54856;BME280;40748;53.168;5.800;2022-08-24T06:55:51;101820.45000000001;;;22.83;64.93
54856;BME280;40748;53.168;5.800;2022-08-24T06:58:21;101820.45000000001;;;23.36;65.51
54856;BME280;40748;53.168;5.800;2022-08-24T07:00:51;101820.7;;;24.17;66.70
54856;BME280;40748;53.168;5.800;2022-08-24T07:03:21;101819.26;;;25.08;67.62
54856;BME280;40748;53.168;5.800;2022-08-24T07:05:51;101819.26;;;26.06;68.57
54856;BME280;40748;53.168;5.800;2022-08-24T07:08:21;101821.11;;;26.98;68.38
54856;BME280;40748;53.168;5.800;2022-08-24T07:10:51;101827.53;;;27.83;67.14
54856;BME280;40748;53.168;5.800;2022-08-24T07:13:21;101824.62000000001;;;28.70;64.41
54856;BME280;40748;53.168;5.800;2022-08-24T07:15:51;101830.53;;;29.46;64.16
54856;BME280;40748;53.168;5.800;2022-08-24T07:18:21;101828.06;;;30.16;61.38
54856;BME280;40748;53.168;5.800;2022-08-24T07:20:51;101830.28;;;30.94;59.73
54856;BME280;40748;53.168;5.800;2022-08-24T07:23:21;101834.16;;;31.83;58.48
54856;BME280;40748;53.168;5.800;2022-08-24T07:25:51;101839.71;;;32.57;57.00
54856;BME280;40748;53.168;5.800;2022-08-24T07:28:21;101839.20000000001;;;33.18;54.57
54856;BME280;40748;53.168;5.800;2022-08-24T07:30:51;101840.12;;;33.84;52.45
54856;BME280;40748;53.168;5.800;2022-08-24T07:33:21;101842.94;;;34.49;50.82
54856;BME280;40748;53.168;5.800;2022-08-24T07:35:51;101846.95;;;35.06;48.43
54856;BME280;40748;53.168;5.800;2022-08-24T07:38:21;101845.63;;;35.41;45.89
54856;BME280;40748;53.168;5.800;2022-08-24T07:40:51;101845.63;;;35.80;45.89
54856;BME280;40748;53.168;5.800;2022-08-24T07:43:21;101848.24;;;36.01;46.30
54856;BME280;40748;53.168;5.800;2022-08-24T07:45:51;101850.12000000001;;;36.22;45.00
54856;BME280;40748;53.168;5.800;2022-08-24T07:48:21;101857.14;;;36.38;44.39
54856;BME280;40748;53.168;5.800;2022-08-24T07:50:51;101859.59;;;36.59;43.21
54856;BME280;40748;53.168;5.800;2022-08-24T07:53:21;101858.81000000001;;;36.84;42.41
54856;BME280;40748;53.168;5.800;2022-08-24T07:55:51;101860.05;;;37.14;41.88
54856;BME280;40748;53.168;5.800;2022-08-24T07:58:21;101861.77;;;37.38;41.55
54856;BME280;40748;53.168;5.800;2022-08-24T08:00:51;101860.77;;;37.72;40.44
54856;BME280;40748;53.168;5.800;2022-08-24T08:03:21;101860.77;;;38.02;40.44
54856;BME280;40748;53.168;5.800;2022-08-24T08:05:54;101866.16;;;38.24;40.37
54856;BME280;40748;53.168;5.800;2022-08-24T08:08:21;101867.76999999999;;;38.38;39.40
54856;BME280;40748;53.168;5.800;2022-08-24T08:10:51;101873.19;;;38.57;38.84
54856;BME280;40748;53.168;5.800;2022-08-24T08:13:21;101874.72;;;38.73;39.06
54856;BME280;40748;53.168;5.800;2022-08-24T08:15:51;101879.44;;;38.85;37.37
54856;BME280;40748;53.168;5.800;2022-08-24T08:18:21;101879.44;;;38.98;37.37
54856;BME280;40748;53.168;5.800;2022-08-24T08:20:51;101885.19;;;39.17;36.99
54856;BME280;40748;53.168;5.800;2022-08-24T08:23:21;101886.89;;;39.38;37.08
54856;BME280;40748;53.168;5.800;2022-08-24T08:25:52;101885.28;;;39.66;37.22
54856;BME280;40748;53.168;5.800;2022-08-24T08:28:21;101881.09;;;39.86;37.20
54856;BME280;40748;53.168;5.800;2022-08-24T08:30:51;101884.52;;;40.03;36.08
54856;BME280;40748;53.168;5.800;2022-08-24T08:33:21;101885.86;;;40.23;36.32
54856;BME280;40748;53.168;5.800;2022-08-24T08:35:51;101885.86;;;40.38;35.76
54856;BME280;40748;53.168;5.800;2022-08-24T08:38:21;101885.94;;;40.62;35.31
54856;BME280;40748;53.168;5.800;2022-08-24T08:40:53;101893.08;;;40.88;35.00
54856;BME280;40748;53.168;5.800;2022-08-24T08:43:27;101887.14;;;41.11;35.71
54856;BME280;40748;53.168;5.800;2022-08-24T08:45:57;101890.3;;;41.37;34.49
54856;BME280;40748;53.168;5.800;2022-08-24T08:48:26;101894.67;;;41.71;34.71
54856;BME280;40748;53.168;5.800;2022-08-24T08:50:56;101888.14;;;42.03;33.69
54856;BME280;40748;53.168;5.800;2022-08-24T08:55:52;101891.69;;;42.71;33.54
54856;BME280;40748;53.168;5.800;2022-08-24T08:58:26;101891.58;;;42.51;33.07
54856;BME280;40748;53.168;5.800;2022-08-24T09:00:54;101890.7;;;42.77;29.94
54856;BME280;40748;53.168;5.800;2022-08-24T09:03:24;101895.2;;;42.79;31.64
54856;BME280;40748;53.168;5.800;2022-08-24T09:05:57;101894.61;;;42.92;32.31
54856;BME280;40748;53.168;5.800;2022-08-24T09:08:25;101894.61;;;42.78;32.31
54856;BME280;40748;53.168;5.800;2022-08-24T09:10:53;101894.8;;;42.91;30.77
54856;BME280;40748;53.168;5.800;2022-08-24T09:13:26;101900.27;;;43.06;31.33
54856;BME280;40748;53.168;5.800;2022-08-24T09:15:54;101893.12999999999;;;43.10;30.02
54856;BME280;40748;53.168;5.800;2022-08-24T09:18:25;101893.12999999999;;;43.30;30.02
54856;BME280;40748;53.168;5.800;2022-08-24T09:20:56;101901.83;;;43.36;30.43
54856;BME280;40748;53.168;5.800;2022-08-24T09:23:23;101901.83;;;43.57;30.43
54856;BME280;40748;53.168;5.800;2022-08-24T09:25:55;101902.8;;;43.85;30.71
54856;BME280;40748;53.168;5.800;2022-08-24T09:28:27;101900.84000000001;;;43.99;30.44
54856;BME280;40748;53.168;5.800;2022-08-24T09:30:55;101906.11;;;43.80;28.66
54856;BME280;40748;53.168;5.800;2022-08-24T09:33:21;101908.29;;;43.96;30.26
54856;BME280;40748;53.168;5.800;2022-08-24T09:35:59;101908.29;;;43.87;30.26
54856;BME280;40748;53.168;5.800;2022-08-24T09:38:22;101903.11;;;43.71;28.57
54856;BME280;40748;53.168;5.800;2022-08-24T09:40:58;101907.58;;;43.54;28.16
54856;BME280;40748;53.168;5.800;2022-08-24T09:43:30;101905.61;;;43.75;29.00
54856;BME280;40748;53.168;5.800;2022-08-24T09:45:57;101909.7;;;43.81;28.82
54856;BME280;40748;53.168;5.800;2022-08-24T09:53:30;101908.15;;;43.56;26.60
54856;BME280;40748;53.168;5.800;2022-08-24T09:55:54;101913.29;;;43.74;27.03
54856;BME280;40748;53.168;5.800;2022-08-24T09:58:23;101912.07;;;43.88;28.20
54856;BME280;40748;53.168;5.800;2022-08-24T10:00:52;101909.12;;;43.87;28.08
54856;BME280;40748;53.168;5.800;2022-08-24T10:03:24;101907.44;;;43.99;27.78
54856;BME280;40748;53.168;5.800;2022-08-24T10:05:56;101908.44;;;44.14;25.16
54856;BME280;40748;53.168;5.800;2022-08-24T10:08:24;101910.85;;;44.02;27.71
54856;BME280;40748;53.168;5.800;2022-08-24T10:10:52;101909.06;;;44.25;27.43
54856;BME280;40748;53.168;5.800;2022-08-24T10:13:24;101909.06;;;44.37;28.16
54856;BME280;40748;53.168;5.800;2022-08-24T10:15:54;101905.22;;;44.60;27.08
54856;BME280;40748;53.168;5.800;2022-08-24T10:18:24;101915.73;;;44.71;27.68
54856;BME280;40748;53.168;5.800;2022-08-24T10:20:55;101910.99;;;44.75;27.44
54856;BME280;40748;53.168;5.800;2022-08-24T10:23:27;101910.08;;;44.76;27.56
54856;BME280;40748;53.168;5.800;2022-08-24T10:25:52;101907.64;;;44.96;27.63
54856;BME280;40748;53.168;5.800;2022-08-24T10:30:55;101900.0;;;44.69;23.72
54856;BME280;40748;53.168;5.800;2022-08-24T10:33:22;101900.0;;;44.53;23.72
54856;BME280;40748;53.168;5.800;2022-08-24T10:35:54;101899.65999999999;;;44.72;25.38
54856;BME280;40748;53.168;5.800;2022-08-24T10:38:23;101896.11;;;44.74;25.16
54856;BME280;40748;53.168;5.800;2022-08-24T10:40:53;101896.11;;;44.71;25.16
54856;BME280;40748;53.168;5.800;2022-08-24T10:43:25;101904.11;;;44.80;25.48
54856;BME280;40748;53.168;5.800;2022-08-24T10:46:02;101904.11;;;44.97;25.48
54856;BME280;40748;53.168;5.800;2022-08-24T10:48:29;101904.71;;;44.90;26.24
54856;BME280;40748;53.168;5.800;2022-08-24T10:50:52;101907.11;;;44.79;23.87
54856;BME280;40748;53.168;5.800;2022-08-24T10:53:22;101905.94;;;44.84;25.38
54856;BME280;40748;53.168;5.800;2022-08-24T10:55:56;101905.94;;;44.91;25.38
54856;BME280;40748;53.168;5.800;2022-08-24T11:00:51;101900.64;;;45.10;25.32
54856;BME280;40748;53.168;5.800;2022-08-24T11:03:21;101898.69;;;45.15;25.61
54856;BME280;40748;53.168;5.800;2022-08-24T11:05:52;101899.22;;;45.24;25.49
54856;BME280;40748;53.168;5.800;2022-08-24T11:08:22;101896.3;;;45.33;23.75
54856;BME280;40748;53.168;5.800;2022-08-24T11:13:21;101892.90999999999;;;45.84;25.39
54856;BME280;40748;53.168;5.800;2022-08-24T11:18:21;101890.61;;;45.85;24.15
54856;BME280;40748;53.168;5.800;2022-08-24T11:20:52;101893.05;;;45.70;23.92
54856;BME280;40748;53.168;5.800;2022-08-24T11:23:22;101896.98;;;45.72;24.50
54856;BME280;40748;53.168;5.800;2022-08-24T11:25:53;101892.38;;;45.84;24.69
54856;BME280;40748;53.168;5.800;2022-08-24T11:28:22;101886.3;;;45.95;23.45
54856;BME280;40748;53.168;5.800;2022-08-24T11:30:51;101887.87999999999;;;46.00;24.72
54856;BME280;40748;53.168;5.800;2022-08-24T11:33:23;101889.94;;;46.34;24.94
54856;BME280;40748;53.168;5.800;2022-08-24T11:35:51;101897.54000000001;;;46.61;25.13
54856;BME280;40748;53.168;5.800;2022-08-24T11:38:22;101893.81;;;46.82;23.72
54856;BME280;40748;53.168;5.800;2022-08-24T11:40:52;101893.81;;;46.78;23.72
54856;BME280;40748;53.168;5.800;2022-08-24T11:43:23;101896.34;;;46.73;23.94
54856;BME280;40748;53.168;5.800;2022-08-24T11:45:55;101893.75;;;46.74;23.84
54856;BME280;40748;53.168;5.800;2022-08-24T11:48:24;101887.7;;;46.66;23.79
54856;BME280;40748;53.168;5.800;2022-08-24T11:50:51;101886.21;;;46.80;23.47
54856;BME280;40748;53.168;5.800;2022-08-24T11:53:23;101888.13;;;46.93;23.80
54856;BME280;40748;53.168;5.800;2022-08-24T11:55:56;101888.08;;;46.98;23.15
54856;BME280;40748;53.168;5.800;2022-08-24T11:58:22;101890.93000000001;;;47.08;23.58
54856;BME280;40748;53.168;5.800;2022-08-24T12:00:53;101884.06;;;47.29;23.56
54856;BME280;40748;53.168;5.800;2022-08-24T12:03:25;101886.84;;;47.42;23.26
54856;BME280;40748;53.168;5.800;2022-08-24T12:05:52;101890.12;;;47.60;23.10
54856;BME280;40748;53.168;5.800;2022-08-24T12:08:22;101888.33;;;47.54;22.74
54856;BME280;40748;53.168;5.800;2022-08-24T12:10:56;101888.06;;;47.43;22.46
54856;BME280;40748;53.168;5.800;2022-08-24T12:13:25;101887.75;;;47.35;21.80
54856;BME280;40748;53.168;5.800;2022-08-24T12:15:52;101887.75;;;46.96;21.80
54856;BME280;40748;53.168;5.800;2022-08-24T12:18:23;101886.65999999999;;;46.67;21.48
54856;BME280;40748;53.168;5.800;2022-08-24T12:20:51;101885.17;;;46.49;20.49
54856;BME280;40748;53.168;5.800;2022-08-24T12:23:23;101885.47;;;46.30;21.76
54856;BME280;40748;53.168;5.800;2022-08-24T12:25:53;101884.06;;;46.10;22.06
54856;BME280;40748;53.168;5.800;2022-08-24T12:28:21;101884.06;;;46.09;22.06
54856;BME280;40748;53.168;5.800;2022-08-24T12:30:51;101881.5;;;46.07;22.02
54856;BME280;40748;53.168;5.800;2022-08-24T12:33:23;101881.5;;;46.04;22.02
54856;BME280;40748;53.168;5.800;2022-08-24T12:35:52;101884.56;;;45.97;22.31
54856;BME280;40748;53.168;5.800;2022-08-24T12:38:22;101887.87;;;45.75;22.65
54856;BME280;40748;53.168;5.800;2022-08-24T12:40:52;101887.87;;;45.64;22.34
54856;BME280;40748;53.168;5.800;2022-08-24T12:43:22;101885.03;;;45.33;22.17
54856;BME280;40748;53.168;5.800;2022-08-24T12:45:51;101882.39;;;45.12;22.21
54856;BME280;40748;53.168;5.800;2022-08-24T12:48:22;101881.36;;;44.82;22.27
54856;BME280;40748;53.168;5.800;2022-08-24T12:50:56;101880.19;;;44.59;22.67
54856;BME280;40748;53.168;5.800;2022-08-24T12:58:27;101880.67;;;42.65;21.13
54856;BME280;40748;53.168;5.800;2022-08-24T13:00:51;101883.54000000001;;;42.45;22.38
54856;BME280;40748;53.168;5.800;2022-08-24T13:03:23;101885.28;;;42.29;22.37
54856;BME280;40748;53.168;5.800;2022-08-24T13:05:53;101886.90000000001;;;42.04;23.43
54856;BME280;40748;53.168;5.800;2022-08-24T13:08:22;101883.1;;;41.73;24.02
54856;BME280;40748;53.168;5.800;2022-08-24T13:10:52;101885.16;;;41.42;24.44
54856;BME280;40748;53.168;5.800;2022-08-24T13:13:39;101885.16;;;41.21;24.44
54856;BME280;40748;53.168;5.800;2022-08-24T13:15:54;101879.71;;;40.99;25.19
54856;BME280;40748;53.168;5.800;2022-08-24T13:20:52;101880.69;;;40.51;25.62
54856;BME280;40748;53.168;5.800;2022-08-24T13:23:21;101883.51;;;40.22;25.83
54856;BME280;40748;53.168;5.800;2022-08-24T13:25:53;101878.28;;;39.91;25.79
54856;BME280;40748;53.168;5.800;2022-08-24T13:30:55;101875.76000000001;;;39.32;26.49
54856;BME280;40748;53.168;5.800;2022-08-24T13:33:24;101875.76000000001;;;39.02;26.38
54856;BME280;40748;53.168;5.800;2022-08-24T13:35:53;101874.3;;;38.74;26.61
54856;BME280;40748;53.168;5.800;2022-08-24T13:38:24;101872.87;;;38.53;27.08
54856;BME280;40748;53.168;5.800;2022-08-24T13:40:52;101871.57999999999;;;38.29;28.04
54856;BME280;40748;53.168;5.800;2022-08-24T13:43:21;101871.57999999999;;;38.17;28.04
54856;BME280;40748;53.168;5.800;2022-08-24T13:45:51;101871.84;;;38.06;28.47
54856;BME280;40748;53.168;5.800;2022-08-24T13:48:24;101872.24;;;37.98;28.76
54856;BME280;40748;53.168;5.800;2022-08-24T13:51:04;101873.03;;;37.83;28.97
54856;BME280;40748;53.168;5.800;2022-08-24T13:53:31;101873.77;;;37.71;28.83
54856;BME280;40748;53.168;5.800;2022-08-24T13:55:52;101873.38;;;37.52;28.64
54856;BME280;40748;53.168;5.800;2022-08-24T13:58:24;101875.15;;;37.38;28.71